createdAt,value
2022-12-27T00:01:11.918Z,97816.44
2022-12-27T00:03:41.030Z,97830.75
2022-12-27T00:06:12.368Z,97847.69
2022-12-27T00:08:40.831Z,97870.25
2022-12-27T00:11:10.741Z,97857.88
2022-12-27T00:13:39.524Z,97861.84
2022-12-27T00:16:11.535Z,97852.97
2022-12-27T00:18:40.808Z,97887.31
2022-12-27T00:21:12.889Z,97883.97
2022-12-27T00:23:43.870Z,97877.97
2022-12-27T00:26:14.734Z,97862.34
2022-12-27T00:28:43.539Z,97865.00
2022-12-27T00:31:12.553Z,97869.06
2022-12-27T00:33:42.410Z,97865.34
2022-12-27T00:36:14.643Z,97883.97
2022-12-27T00:38:43.314Z,97884.91
2022-12-27T00:41:12.357Z,97895.50
2022-12-27T00:43:41.759Z,97903.06
2022-12-27T00:46:11.011Z,97903.59
2022-12-27T00:48:39.624Z,97904.44
2022-12-27T00:51:09.723Z,97903.59
2022-12-27T00:53:42.167Z,97909.31
2022-12-27T00:56:12.387Z,97912.06
2022-12-27T00:58:41.242Z,97915.22
2022-12-27T01:01:15.376Z,97927.69
2022-12-27T01:03:44.496Z,97928.88
2022-12-27T01:06:14.811Z,97928.06
2022-12-27T01:08:45.035Z,97933.22
2022-12-27T01:11:14.122Z,97948.81
2022-12-27T01:13:42.994Z,97941.84
2022-12-27T01:16:12.574Z,97941.63
2022-12-27T01:18:41.106Z,97947.84
2022-12-27T01:21:11.355Z,97948.69
2022-12-27T01:23:40.353Z,97960.09
2022-12-27T01:26:12.529Z,97964.56
2022-12-27T01:28:42.276Z,97967.31
2022-12-27T01:31:12.766Z,97968.03
2022-12-27T01:33:41.463Z,97980.41
2022-12-27T01:36:12.343Z,97990.25
2022-12-27T01:38:42.817Z,97987.50
2022-12-27T01:41:34.229Z,97990.97
2022-12-27T01:44:02.921Z,97993.63
2022-12-27T01:46:31.766Z,97988.22
2022-12-27T01:49:02.304Z,97999.84
2022-12-27T01:51:32.853Z,98005.84
2022-12-27T01:54:01.259Z,98008.75
2022-12-27T01:56:32.186Z,98008.88
2022-12-27T01:59:03.939Z,98015.81
2022-12-27T02:01:35.211Z,98006.94
2022-12-27T02:04:07.305Z,98020.16
2022-12-27T02:06:37.308Z,98024.59
2022-12-27T02:09:12.134Z,98029.16
2022-12-27T02:11:55.251Z,98036.97
2022-12-27T02:14:28.874Z,98047.53
2022-12-27T02:16:58.913Z,98045.97
2022-12-27T02:19:40.146Z,98046.09
2022-12-27T02:22:23.993Z,98055.84
2022-12-27T02:25:04.828Z,98070.59
2022-12-27T02:28:00.158Z,98064.56
2022-12-27T02:30:30.951Z,98065.56
2022-12-27T02:33:03.694Z,98080.69
2022-12-27T02:35:35.483Z,98085.88
2022-12-27T02:38:08.661Z,98088.25
2022-12-27T02:40:57.844Z,98092.69
2022-12-27T02:43:44.728Z,98102.56
2022-12-27T02:46:36.156Z,98105.19
2022-12-27T02:49:22.777Z,98106.03
2022-12-27T02:52:17.383Z,98100.13
2022-12-27T02:55:09.969Z,98106.28
2022-12-27T02:57:42.304Z,98102.03
2022-12-27T03:00:30.421Z,98119.56
2022-12-27T03:03:37.235Z,98121.38
2022-12-27T03:06:39.109Z,98124.25
2022-12-27T03:09:37.559Z,98131.19
2022-12-27T03:12:26.374Z,98124.34
2022-12-27T03:15:17.293Z,98125.31
2022-12-27T03:17:50.380Z,98135.03
2022-12-27T03:20:38.438Z,98141.16
2022-12-27T03:23:27.522Z,98144.66
2022-12-27T03:25:56.663Z,98150.78
2022-12-27T03:28:46.281Z,98156.06
2022-12-27T03:31:35.925Z,98174.53
2022-12-27T03:34:27.740Z,98180.78
2022-12-27T03:37:18.786Z,98176.69
2022-12-27T03:39:51.333Z,98187.13
2022-12-27T03:42:41.725Z,98188.94
2022-12-27T03:45:10.874Z,98196.84
2022-12-27T03:47:42.961Z,98198.78
2022-12-27T03:50:15.273Z,98208.38
2022-12-27T03:52:47.802Z,98210.41
2022-12-27T03:55:16.906Z,98226.13
2022-12-27T03:57:45.368Z,98229.00
2022-12-27T04:00:15.074Z,98223.50
2022-12-27T04:02:45.343Z,98229.84
2022-12-27T04:05:13.857Z,98220.25
2022-12-27T04:07:59.784Z,98213.72
2022-12-27T04:10:46.885Z,98225.47
2022-12-27T04:13:32.594Z,98221.75
2022-12-27T04:16:18.341Z,98220.91
2022-12-27T04:19:04.233Z,98223.66
2022-12-27T04:21:50.210Z,98231.47
2022-12-27T04:24:35.933Z,98225.56
2022-12-27T04:27:23.208Z,98225.91
2022-12-27T04:30:09.123Z,98229.63
2022-12-27T04:32:54.827Z,98220.22
2022-12-27T04:35:23.249Z,98233.09
2022-12-27T04:37:51.759Z,98238.38
2022-12-27T04:40:37.694Z,98244.63
2022-12-27T04:43:26.465Z,98245.69
2022-12-27T04:46:12.332Z,98250.97
2022-12-27T04:48:58.282Z,98252.66
2022-12-27T04:51:44.180Z,98257.31
2022-12-27T04:54:33.922Z,98263.53
2022-12-27T04:57:02.357Z,98266.28
2022-12-27T04:59:49.800Z,98266.19
2022-12-27T05:02:19.478Z,98268.81
2022-12-27T05:04:49.158Z,98264.38
2022-12-27T05:07:35.515Z,98271.25
2022-12-27T05:10:23.290Z,98277.47
2022-12-27T05:13:09.263Z,98274.94
2022-12-27T05:15:39.068Z,98268.81
2022-12-27T05:18:07.501Z,98276.75
2022-12-27T05:20:36.095Z,98274.09
2022-12-27T05:23:22.355Z,98276.63
2022-12-27T05:25:50.787Z,98285.50
2022-12-27T05:28:19.316Z,98282.84
2022-12-27T05:30:49.088Z,98297.75
2022-12-27T05:33:17.761Z,98303.97
2022-12-27T05:35:46.181Z,98304.09
2022-12-27T05:38:14.748Z,98302.28
2022-12-27T05:40:43.234Z,98299.75
2022-12-27T05:43:11.741Z,98296.28
2022-12-27T05:45:40.153Z,98292.06
2022-12-27T05:48:09.876Z,98295.53
2022-12-27T05:50:38.277Z,98294.81
2022-12-27T05:53:11.851Z,98295.66
2022-12-27T05:55:40.427Z,98301.03
2022-12-27T05:58:08.839Z,98306.44
2022-12-27T06:00:37.543Z,98295.97
2022-12-27T06:03:06.148Z,98295.03
2022-12-27T06:05:36.023Z,98299.56
2022-12-27T06:08:04.497Z,98308.44
2022-12-27T06:10:32.924Z,98310.13
2022-12-27T06:13:01.670Z,98304.13
2022-12-27T06:15:30.112Z,98315.50
2022-12-27T06:17:59.991Z,98312.03
2022-12-27T06:20:28.424Z,98316.56
2022-12-27T06:22:59.764Z,98315.63
2022-12-27T06:25:28.167Z,98322.81
2022-12-27T06:27:56.563Z,98316.56
2022-12-27T06:30:25.012Z,98330.84
2022-12-27T06:32:53.433Z,98333.56
2022-12-27T06:35:21.818Z,98330.09
2022-12-27T06:37:50.258Z,98327.47
2022-12-27T06:40:21.940Z,98333.69
2022-12-27T06:42:50.426Z,98345.09
2022-12-27T06:45:19.225Z,98343.41
2022-12-27T06:47:47.659Z,98341.72
2022-12-27T06:50:16.500Z,98352.25
2022-12-27T06:52:47.760Z,98354.16
2022-12-27T06:55:16.405Z,98351.53
2022-12-27T06:57:46.216Z,98352.47
2022-12-27T07:00:16.161Z,98349.72
2022-12-27T07:02:44.861Z,98349.00
2022-12-27T07:05:13.411Z,98354.28
2022-12-27T07:07:41.781Z,98350.69
2022-12-27T07:10:10.993Z,98352.47
2022-12-27T07:12:39.525Z,98350.09
2022-12-27T07:15:10.421Z,98346.50
2022-12-27T07:17:39.374Z,98354.41
2022-12-27T07:20:09.217Z,98350.94
2022-12-27T07:22:37.801Z,98361.59
2022-12-27T07:25:07.655Z,98355.38
2022-12-27T07:27:36.463Z,98366.88
2022-12-27T07:30:06.241Z,98370.34
2022-12-27T07:32:36.203Z,98370.47
2022-12-27T07:35:05.330Z,98375.84
2022-12-27T07:37:33.861Z,98377.41
2022-12-27T07:40:02.332Z,98371.41
2022-12-27T07:42:30.899Z,98381.97
2022-12-27T07:45:00.204Z,98379.44
2022-12-27T07:47:28.585Z,98381.22
2022-12-27T07:49:58.373Z,98375.00
2022-12-27T07:52:27.044Z,98381.22
2022-12-27T07:54:55.459Z,98383.75
2022-12-27T07:57:24.502Z,98376.91
2022-12-27T07:59:52.952Z,98377.75
2022-12-27T08:02:21.434Z,98376.91
2022-12-27T08:04:49.888Z,98374.47
2022-12-27T08:07:20.727Z,98372.66
2022-12-27T08:09:49.874Z,98372.47
2022-12-27T08:12:18.285Z,98382.69
2022-12-27T08:14:46.681Z,98385.34
2022-12-27T08:17:20.716Z,98391.47
2022-12-27T08:19:52.006Z,98387.03
2022-12-27T08:22:22.194Z,98407.06
2022-12-27T08:24:51.179Z,98396.50
2022-12-27T08:27:23.913Z,98406.00
2022-12-27T08:29:52.427Z,98409.69
2022-12-27T08:32:20.959Z,98408.63
2022-12-27T08:34:49.526Z,98412.13
2022-12-27T08:37:17.964Z,98406.09
2022-12-27T08:39:47.840Z,98409.59
2022-12-27T08:42:16.354Z,98400.50
2022-12-27T08:44:45.052Z,98403.25
2022-12-27T08:47:14.210Z,98413.28
2022-12-27T08:49:42.557Z,98412.22
2022-12-27T08:52:10.909Z,98420.78
2022-12-27T08:54:39.449Z,98419.19
2022-12-27T08:57:09.297Z,98410.00
2022-12-27T08:59:37.824Z,98415.91
2022-12-27T09:02:06.510Z,98423.72
2022-12-27T09:04:35.079Z,98418.25
2022-12-27T09:07:03.799Z,98423.19
2022-12-27T09:09:32.709Z,98431.00
2022-12-27T09:12:04.077Z,98431.97
2022-12-27T09:14:38.197Z,98435.34
2022-12-27T09:17:07.229Z,98435.22
2022-12-27T09:19:36.068Z,98440.63
2022-12-27T09:22:04.559Z,98427.31
2022-12-27T09:24:33.340Z,98432.50
2022-12-27T09:27:01.952Z,98437.66
2022-12-27T09:29:30.341Z,98437.44
2022-12-27T09:32:00.318Z,98438.06
2022-12-27T09:34:28.881Z,98440.63
2022-12-27T09:36:57.368Z,98446.75
2022-12-27T09:39:25.741Z,98448.53
2022-12-27T09:44:50.914Z,98445.16
2022-12-27T09:47:24.726Z,98450.22
2022-12-27T09:49:54.692Z,98449.25
2022-12-27T09:52:27.911Z,98442.06
2022-12-27T09:55:04.700Z,98432.06
2022-12-27T09:57:37.516Z,98429.91
2022-12-27T10:00:14.595Z,98422.69
2022-12-27T10:02:45.426Z,98428.72
2022-12-27T10:05:21.566Z,98421.41
2022-12-27T10:08:00.747Z,98422.16
2022-12-27T10:10:42.690Z,98416.03
2022-12-27T10:13:20.333Z,98425.66
2022-12-27T10:15:52.524Z,98428.91
2022-12-27T10:18:41.565Z,98431.22
2022-12-27T10:21:19.330Z,98427.50
2022-12-27T10:23:54.029Z,98422.13
2022-12-27T10:26:22.981Z,98422.00
2022-12-27T10:28:57.127Z,98424.53
2022-12-27T10:31:26.761Z,98421.06
2022-12-27T10:33:56.590Z,98422.00
2022-12-27T10:36:28.205Z,98429.59
2022-12-27T10:38:56.817Z,98427.69
2022-12-27T10:41:35.153Z,98423.97
2022-12-27T10:44:04.025Z,98433.50
2022-12-27T10:46:33.741Z,98423.66
2022-12-27T10:49:20.531Z,98423.66
2022-12-27T10:51:50.124Z,98431.25
2022-12-27T10:54:22.557Z,98432.09
2022-12-27T10:56:51.174Z,98437.25
2022-12-27T10:59:21.091Z,98437.25
2022-12-27T11:01:51.743Z,98433.16
2022-12-27T11:04:22.891Z,98428.50
2022-12-27T11:06:52.798Z,98421.41
2022-12-27T11:09:30.185Z,98431.25
2022-12-27T11:12:13.944Z,98419.50
2022-12-27T11:14:55.124Z,98410.59
2022-12-27T11:17:26.229Z,98408.81
2022-12-27T11:19:57.596Z,98408.47
2022-12-27T11:22:26.580Z,98413.41
2022-12-27T11:24:58.285Z,98401.03
2022-12-27T11:27:29.157Z,98401.88
2022-12-27T11:29:59.419Z,98393.72
2022-12-27T11:32:28.099Z,98390.84
2022-12-27T11:34:58.577Z,98388.09
2022-12-27T11:37:27.648Z,98380.75
2022-12-27T11:39:56.959Z,98378.97
2022-12-27T11:42:33.554Z,98372.72
2022-12-27T11:45:10.157Z,98373.28
2022-12-27T11:47:42.833Z,98377.50
2022-12-27T11:50:38.501Z,98368.50
2022-12-27T11:53:13.613Z,98366.56
2022-12-27T11:55:54.296Z,98378.00
2022-12-27T11:58:55.026Z,98369.22
2022-12-27T12:01:44.533Z,98369.22
2022-12-27T12:04:38.917Z,98375.47
2022-12-27T12:07:18.549Z,98363.44
2022-12-27T12:09:57.892Z,98361.88
2022-12-27T12:12:54.281Z,98367.41
2022-12-27T12:15:43.413Z,98358.66
2022-12-27T12:18:23.480Z,98373.78
2022-12-27T12:21:05.934Z,98359.59
2022-12-27T12:23:50.174Z,98366.47
2022-12-27T12:26:19.185Z,98363.81
2022-12-27T12:29:11.217Z,98357.53
2022-12-27T12:32:05.219Z,98358.38
2022-12-27T12:34:47.945Z,98365.34
2022-12-27T12:37:26.487Z,98359.22
2022-12-27T12:40:10.737Z,98357.31
2022-12-27T12:42:46.347Z,98360.78
2022-12-27T12:45:33.095Z,98358.25
2022-12-27T12:48:34.762Z,98359.84
2022-12-27T12:51:12.417Z,98357.19
2022-12-27T12:53:51.979Z,98352.97
2022-12-27T12:56:38.810Z,98362.72
2022-12-27T12:59:26.289Z,98356.84
2022-12-27T13:02:05.135Z,98346.97
2022-12-27T13:04:44.604Z,98350.31
2022-12-27T13:07:28.359Z,98347.56
2022-12-27T13:10:28.492Z,98354.78
2022-12-27T13:13:02.144Z,98356.56
2022-12-27T13:15:40.083Z,98348.75
2022-12-27T13:18:21.784Z,98337.22
2022-12-27T13:21:07.772Z,98341.81
2022-12-27T13:23:45.354Z,98334.94
2022-12-27T13:26:21.320Z,98332.41
2022-12-27T13:29:06.382Z,98321.13
2022-12-27T13:31:41.333Z,98329.28
2022-12-27T13:34:22.243Z,98318.81
2022-12-27T13:37:02.458Z,98324.94
2022-12-27T13:39:42.664Z,98326.03
2022-12-27T13:42:36.658Z,98325.19
2022-12-27T13:45:16.698Z,98331.44
2022-12-27T13:47:57.675Z,98328.78
2022-12-27T13:50:44.947Z,98330.47
2022-12-27T13:53:46.763Z,98324.44
2022-12-27T13:56:52.963Z,98320.84
2022-12-27T13:59:36.841Z,98320.84
2022-12-27T14:02:30.923Z,98328.06
2022-12-27T14:05:19.190Z,98332.50
2022-12-27T14:07:57.201Z,98334.41
2022-12-27T14:10:36.246Z,98340.56
2022-12-27T14:13:07.795Z,98337.19
2022-12-27T14:16:01.111Z,98344.38
2022-12-27T14:18:53.795Z,98351.34
2022-12-27T14:21:45.120Z,98339.09
2022-12-27T14:24:22.703Z,98344.38
2022-12-27T14:27:35.567Z,98345.34
2022-12-27T14:30:20.438Z,98346.41
2022-12-27T14:33:31.507Z,98350.63
2022-12-27T14:36:38.097Z,98350.63
2022-12-27T14:39:24.836Z,98347.97
2022-12-27T14:42:15.866Z,98354.97
2022-12-27T14:45:11.031Z,98362.78
2022-12-27T14:48:33.310Z,98359.53
2022-12-27T14:54:56.245Z,98353.63
2022-12-27T14:57:34.729Z,98351.94
2022-12-27T15:00:11.916Z,98353.72
2022-12-27T15:02:52.214Z,98354.69
2022-12-27T15:05:32.445Z,98353.13
2022-12-27T15:08:15.031Z,98350.69
2022-12-27T15:11:02.618Z,98340.00
2022-12-27T15:13:44.605Z,98344.34
2022-12-27T15:16:17.545Z,98341.91
2022-12-27T15:19:04.797Z,98341.53
2022-12-27T15:21:48.321Z,98342.25
2022-12-27T15:24:27.716Z,98336.75
2022-12-27T15:26:59.582Z,98337.94
2022-12-27T15:29:36.051Z,98335.19
2022-12-27T15:32:12.966Z,98336.13
2022-12-27T15:35:00.327Z,98338.66
2022-12-27T15:38:01.932Z,98338.78
2022-12-27T15:40:42.171Z,98337.94
2022-12-27T15:43:22.452Z,98331.81
2022-12-27T15:45:59.780Z,98335.41
2022-12-27T15:48:59.777Z,98329.28
2022-12-27T15:51:34.160Z,98334.44
2022-12-27T15:54:20.346Z,98327.47
2022-12-27T15:57:21.253Z,98329.28
2022-12-27T15:59:51.795Z,98324.81
2022-12-27T16:02:36.426Z,98339.84
2022-12-27T16:05:13.879Z,98342.59
2022-12-27T16:07:45.537Z,98343.34
2022-12-27T16:10:33.423Z,98338.16
2022-12-27T16:13:18.525Z,98342.72
2022-12-27T16:15:52.775Z,98342.72
2022-12-27T16:18:44.869Z,98342.59
2022-12-27T16:21:18.294Z,98341.88
2022-12-27T16:23:51.941Z,98338.38
2022-12-27T16:26:22.560Z,98342.81
2022-12-27T16:28:57.090Z,98337.66
2022-12-27T16:31:26.831Z,98340.28
2022-12-27T16:33:58.419Z,98335.97
2022-12-27T16:36:29.764Z,98335.84
2022-12-27T16:39:31.243Z,98328.88
2022-12-27T16:42:09.267Z,98329.84
2022-12-27T16:44:48.680Z,98336.91
2022-12-27T16:47:41.346Z,98329.94
2022-12-27T16:50:43.904Z,98322.88
2022-12-27T16:53:20.594Z,98318.66
2022-12-27T16:56:03.023Z,98323.81
2022-12-27T16:58:36.917Z,98323.81
2022-12-27T17:01:06.960Z,98316.00
2022-12-27T17:03:59.644Z,98324.78
2022-12-27T17:06:57.588Z,98326.56
2022-12-27T17:09:45.696Z,98317.81
2022-12-27T17:12:24.533Z,98314.31
2022-12-27T17:14:58.958Z,98313.47
2022-12-27T17:17:27.909Z,98303.75
2022-12-27T17:19:59.871Z,98303.75
2022-12-27T17:22:34.976Z,98300.38
2022-12-27T17:25:04.835Z,98310.09
2022-12-27T17:27:48.515Z,98305.66
2022-12-27T17:30:20.349Z,98307.47
2022-12-27T17:33:10.968Z,98310.94
2022-12-27T17:35:51.716Z,98307.47
2022-12-27T17:38:30.952Z,98305.78
2022-12-27T17:41:11.945Z,98302.28
2022-12-27T17:44:08.855Z,98306.63
2022-12-27T17:46:42.754Z,98305.78
2022-12-27T17:49:11.853Z,98305.88
2022-12-27T17:52:02.988Z,98309.38
2022-12-27T17:54:50.734Z,98304.09
2022-12-27T17:57:38.207Z,98293.63
2022-12-27T18:00:08.322Z,98295.44
2022-12-27T18:02:41.286Z,98298.06
2022-12-27T18:05:14.321Z,98296.28
2022-12-27T18:07:43.670Z,98302.50
2022-12-27T18:10:20.219Z,98301.66
2022-12-27T18:12:52.248Z,98301.66
2022-12-27T18:15:23.404Z,98291.22
2022-12-27T18:17:54.106Z,98289.41
2022-12-27T18:20:35.095Z,98286.03
2022-12-27T18:23:24.517Z,98285.94
2022-12-27T18:25:56.820Z,98289.41
2022-12-27T18:28:32.595Z,98279.91
2022-12-27T18:31:06.141Z,98276.44
2022-12-27T18:33:35.952Z,98274.75
2022-12-27T18:36:06.005Z,98268.72
2022-12-27T18:38:36.531Z,98273.06
2022-12-27T18:41:08.652Z,98274.75
2022-12-27T18:43:37.773Z,98284.59
2022-12-27T18:46:06.730Z,98284.47
2022-12-27T18:48:36.545Z,98272.22
2022-12-27T18:51:05.683Z,98274.97
2022-12-27T18:53:36.875Z,98276.78
2022-12-27T18:56:09.171Z,98274.00
2022-12-27T18:58:37.739Z,98271.38
2022-12-27T19:01:14.801Z,98274.84
2022-12-27T19:03:43.542Z,98272.34
2022-12-27T19:06:13.425Z,98265.34
2022-12-27T19:08:46.744Z,98262.72
2022-12-27T19:11:22.003Z,98260.06
2022-12-27T19:13:51.922Z,98253.97
2022-12-27T19:16:24.141Z,98243.41
2022-12-27T19:18:54.703Z,98246.06
2022-12-27T19:21:30.780Z,98233.91
2022-12-27T19:23:59.320Z,98236.56
2022-12-27T19:26:32.726Z,98247.00
2022-12-27T19:29:04.248Z,98234.75
2022-12-27T19:31:32.856Z,98243.41
2022-12-27T19:34:03.456Z,98242.56
2022-12-27T19:36:34.148Z,98241.59
2022-12-27T19:39:03.112Z,98235.59
2022-12-27T19:41:33.047Z,98244.47
2022-12-27T19:44:03.492Z,98238.34
2022-12-27T19:46:32.040Z,98243.53
2022-12-27T19:51:50.313Z,98241.00
2022-12-27T19:54:21.197Z,98232.19
2022-12-27T19:56:51.241Z,98236.88
2022-12-27T19:59:22.523Z,98235.78
2022-12-27T20:01:51.462Z,98240.25
2022-12-27T20:04:20.898Z,98232.31
2022-12-27T20:06:49.974Z,98234.09
2022-12-27T20:09:20.101Z,98224.50
2022-12-27T20:11:51.049Z,98235.19
2022-12-27T20:14:19.729Z,98227.25
2022-12-27T20:16:48.182Z,98233.38
2022-12-27T20:19:18.171Z,98224.72
2022-12-27T20:21:46.952Z,98233.59
2022-12-27T20:24:15.724Z,98233.50
2022-12-27T20:26:44.560Z,98223.03
2022-12-27T20:29:15.168Z,98230.13
2022-12-27T20:31:48.527Z,98228.44
2022-12-27T20:34:17.038Z,98229.28
2022-12-27T20:36:45.763Z,98229.91
2022-12-27T20:39:14.221Z,98233.50
2022-12-27T20:41:42.719Z,98233.59
2022-12-27T20:44:11.211Z,98228.44
2022-12-27T20:46:41.609Z,98222.31
2022-12-27T20:49:10.152Z,98231.19
2022-12-27T20:51:38.593Z,98225.06
2022-12-27T20:54:07.056Z,98212.81
2022-12-27T20:56:36.745Z,98213.78
2022-12-27T20:59:05.310Z,98211.13
2022-12-27T21:01:33.947Z,98192.75
2022-12-27T21:04:04.159Z,98202.47
2022-12-27T21:06:32.628Z,98206.91
2022-12-27T21:09:01.033Z,98208.59
2022-12-27T21:11:31.576Z,98197.19
2022-12-27T21:14:01.113Z,98196.47
2022-12-27T21:16:31.141Z,98196.47
2022-12-27T21:19:02.845Z,98195.63
2022-12-27T21:21:34.251Z,98196.59
2022-12-27T21:24:02.932Z,98199.94
2022-12-27T21:26:33.440Z,98201.75
2022-12-27T21:29:03.025Z,98193.09
2022-12-27T21:31:32.222Z,98183.50
2022-12-27T21:34:01.088Z,98190.47
2022-12-27T21:36:32.593Z,98184.44
2022-12-27T21:39:02.867Z,98186.25
2022-12-27T21:41:33.066Z,98184.56
2022-12-27T21:44:02.104Z,98181.06
2022-12-27T21:46:31.948Z,98185.50
2022-12-27T21:49:02.071Z,98179.28
2022-12-27T21:51:32.809Z,98177.59
2022-12-27T21:54:01.331Z,98174.94
2022-12-27T21:56:30.588Z,98178.56
2022-12-27T21:59:00.265Z,98169.66
2022-12-27T22:01:30.057Z,98168.84
2022-12-27T22:03:59.644Z,98162.81
2022-12-27T22:06:29.433Z,98167.38
2022-12-27T22:09:00.421Z,98173.38
2022-12-27T22:11:29.900Z,98168.94
2022-12-27T22:13:58.744Z,98164.72
2022-12-27T22:16:28.765Z,98169.06
2022-12-27T22:18:57.299Z,98167.38
2022-12-27T22:21:27.890Z,98174.56
2022-12-27T22:23:57.981Z,98165.91
2022-12-27T22:26:29.650Z,98169.41
2022-12-27T22:28:58.380Z,98157.16
2022-12-27T22:31:30.186Z,98153.56
2022-12-27T22:33:58.917Z,98164.22
2022-12-27T22:36:28.103Z,98163.38
2022-12-27T22:38:56.878Z,98158.09
2022-12-27T22:41:28.549Z,98158.94
2022-12-27T22:43:58.467Z,98163.50
2022-12-27T22:46:27.262Z,98157.25
2022-12-27T22:48:57.427Z,98151.25
2022-12-27T22:51:28.088Z,98145.03
2022-12-27T22:53:57.015Z,98144.28
2022-12-27T22:56:28.936Z,98137.22
2022-12-27T22:58:57.750Z,98136.47
2022-12-27T23:01:27.763Z,98135.63
2022-12-27T23:03:57.040Z,98153.91
2022-12-27T23:06:26.123Z,98142.50
2022-12-27T23:08:54.932Z,98147.88
2022-12-27T23:11:26.220Z,98141.75
2022-12-27T23:13:58.725Z,98137.44
2022-12-27T23:16:27.629Z,98145.38
2022-12-27T23:18:56.258Z,98139.97
2022-12-27T23:21:24.979Z,98136.47
2022-12-27T23:23:53.937Z,98126.88
2022-12-27T23:26:24.095Z,98127.72
2022-12-27T23:28:53.385Z,98121.84
2022-12-27T23:31:24.419Z,98136.72
2022-12-27T23:33:53.417Z,98135.03
2022-12-27T23:36:23.208Z,98134.19
2022-12-27T23:38:51.930Z,98126.38
2022-12-27T23:41:23.324Z,98122.78
2022-12-27T23:43:54.544Z,98120.25
2022-12-27T23:46:28.092Z,98113.91
2022-12-27T23:48:57.444Z,98114.13
2022-12-27T23:51:25.967Z,98107.91
2022-12-27T23:53:54.655Z,98104.41
2022-12-27T23:56:24.763Z,98104.53
2022-12-27T23:58:54.737Z,98094.09
